الصفحة الرئيسية
METAR-TAF:

METAR-TAF

مطار :

Repulse Bay, نونافوت, كندا

دائرة عرض: 66-32N, خط طول: 086-15W, ارتفاع: 24 متر

مراقبة الطقس الحالي

تاريخ ووقت الإصدار 19ساعات و 40 دقيقة قبل الساعة 22:00UTC
ريح 10 عقدة من الشمال تتزايد حتى 16 عقدة
درجة الحرارة 9°درجة مئوية
الرطوبة 53%
ضغط 1008 hPa
الرؤية: 24.1 كم
غيوم متفرقة على ارتفاع 2000 قدم

METAR: CYUT 142200Z 36010G16KT 15SM SCT020 09/00 A2977 RMK SC4 LAST STFD OBS/NXT 151400Z SLP083

زمن: 12:40 (17:40 UTC)

توقعات

تاريخ ووقت الإصدار 22ساعات و 56 دقيقة قبل الساعة 18:44UTC
التوقعات صالحة من14 الساعة 19 UTC إلى 14 الساعة 22 UTC
ريح 12 عقدة من الشمال
الرؤية: 10 كم
غيوم قليلة على ارتفاع 3000 قدم

TAF: CYUT 141844Z 1419/1422 36012KT P6SM FEW030 RMK NXT FCST BY 151600Z

أرصاد الطقس والتوقعات من أكثر من 4000 مطار (تقارير الطقس للمطار METAR والتنبؤ بالطقس بالمطارTAF).

المحطات المتاحة هي النقط الصفراء والحمراء على الخريطة.

حرك المؤشر فوق النقطة لمعرفة اسم المحطة.

ثم انقر لمعرفة أرصاد وتوقعات الطقس.

لتغيير الخارطة: اضغط على الأزرار الخضراء مع رمز الصليب الأسود للتكبير. على الزر الأخضر مع شرطة للتصغير، أو على الأسهم الخضراء للخرائط المجاورة.


METAR-TAF: